CheckWX is a tool to help pilots better visualize weather data.  It is not intended as a substitute for an official pre-flight weather briefing.

20:33:09 UTC

KFLG TAF
Flagstaff Pulliam Airport
Flagstaff, Arizona, USA
KFLG 221850Z 2219/2318 28010G17KT P6SM SCT040 FM230130 VRB04KT P6SM SCT250

Mar-22@
19:00 UTC

Mar-22 @ 19:00 UTC

Mar-23@
01:30 UTC

Mar-23 @ 01:30 UTC

KFLG 221850Z 2219/2318 28010G17KT P6SM SCT040
Wind
  • 280° at 10 KTS
  • {Gusting to 17 KTS
Cloud Levels
  • Scattered at 4,000' AGL

Mar-23@
01:30 UTC

Mar-23 @ 01:30 UTC

Mar-23@
18:00 UTC

Mar-23 @ 18:00 UTC

FM230130 VRB04KT P6SM SCT250

From

From Standard forecast or significant change

Wind
  • Variable at 4 KTS
Cloud Levels
  • Scattered at 25,000' AGL